sensor_id;sensor_type;location;lat;lon;timestamp;P1;durP1;ratioP1;P2;durP2;ratioP2
52740;SDS011;38634;52.138;9.912;2023-01-31T00:01:28;13.52;;;3.30;;
52740;SDS011;38634;52.138;9.912;2023-01-31T00:04:16;11.48;;;3.00;;
52740;SDS011;38634;52.138;9.912;2023-01-31T00:07:00;13.27;;;3.75;;
52740;SDS011;38634;52.138;9.912;2023-01-31T00:09:45;12.05;;;3.28;;
52740;SDS011;38634;52.138;9.912;2023-01-31T00:12:30;13.30;;;3.60;;
52740;SDS011;38634;52.138;9.912;2023-01-31T00:15:14;14.98;;;5.63;;
52740;SDS011;38634;52.138;9.912;2023-01-31T00:18:00;21.33;;;5.55;;
52740;SDS011;38634;52.138;9.912;2023-01-31T00:20:45;11.98;;;3.28;;
52740;SDS011;38634;52.138;9.912;2023-01-31T00:23:29;10.40;;;3.10;;
52740;SDS011;38634;52.138;9.912;2023-01-31T00:29:07;10.95;;;3.05;;
52740;SDS011;38634;52.138;9.912;2023-01-31T00:31:51;13.85;;;3.55;;
52740;SDS011;38634;52.138;9.912;2023-01-31T00:34:36;10.82;;;3.42;;
52740;SDS011;38634;52.138;9.912;2023-01-31T00:37:21;13.77;;;5.70;;
52740;SDS011;38634;52.138;9.912;2023-01-31T00:40:05;14.40;;;3.60;;
52740;SDS011;38634;52.138;9.912;2023-01-31T00:42:51;13.43;;;3.47;;
52740;SDS011;38634;52.138;9.912;2023-01-31T00:45:36;16.65;;;4.05;;
52740;SDS011;38634;52.138;9.912;2023-01-31T00:48:21;15.35;;;4.28;;
52740;SDS011;38634;52.138;9.912;2023-01-31T00:51:06;15.38;;;4.05;;
52740;SDS011;38634;52.138;9.912;2023-01-31T00:53:50;18.38;;;5.20;;
52740;SDS011;38634;52.138;9.912;2023-01-31T00:56:35;13.50;;;3.63;;
52740;SDS011;38634;52.138;9.912;2023-01-31T00:59:20;17.33;;;4.13;;
52740;SDS011;38634;52.138;9.912;2023-01-31T01:02:05;9.63;;;2.80;;
52740;SDS011;38634;52.138;9.912;2023-01-31T01:04:50;14.75;;;3.50;;
52740;SDS011;38634;52.138;9.912;2023-01-31T01:07:34;11.85;;;3.08;;
52740;SDS011;38634;52.138;9.912;2023-01-31T10:40:16;14.13;;;3.75;;
52740;SDS011;38634;52.138;9.912;2023-01-31T10:43:08;11.68;;;3.40;;
52740;SDS011;38634;52.138;9.912;2023-01-31T10:46:20;14.27;;;3.63;;
52740;SDS011;38634;52.138;9.912;2023-01-31T10:49:04;42.83;;;9.20;;
52740;SDS011;38634;52.138;9.912;2023-01-31T10:51:58;25.00;;;6.07;;
52740;SDS011;38634;52.138;9.912;2023-01-31T10:55:03;32.30;;;8.10;;
52740;SDS011;38634;52.138;9.912;2023-01-31T10:58:31;29.80;;;7.45;;
52740;SDS011;38634;52.138;9.912;2023-01-31T11:01:18;26.52;;;6.93;;
52740;SDS011;38634;52.138;9.912;2023-01-31T11:04:03;15.77;;;5.90;;
52740;SDS011;38634;52.138;9.912;2023-01-31T11:07:13;15.45;;;4.65;;
52740;SDS011;38634;52.138;9.912;2023-01-31T11:09:58;19.30;;;5.40;;
52740;SDS011;38634;52.138;9.912;2023-01-31T11:12:56;32.88;;;7.65;;
52740;SDS011;38634;52.138;9.912;2023-01-31T11:15:46;26.13;;;5.90;;
52740;SDS011;38634;52.138;9.912;2023-01-31T11:18:33;42.75;;;9.90;;
52740;SDS011;38634;52.138;9.912;2023-01-31T11:21:21;39.72;;;8.93;;
52740;SDS011;38634;52.138;9.912;2023-01-31T11:24:17;22.50;;;5.50;;
52740;SDS011;38634;52.138;9.912;2023-01-31T11:27:06;46.13;;;8.18;;
52740;SDS011;38634;52.138;9.912;2023-01-31T11:29:54;21.70;;;5.22;;
52740;SDS011;38634;52.138;9.912;2023-01-31T11:32:41;17.98;;;5.53;;
52740;SDS011;38634;52.138;9.912;2023-01-31T11:35:27;44.75;;;9.02;;
52740;SDS011;38634;52.138;9.912;2023-01-31T11:38:21;51.65;;;10.48;;
52740;SDS011;38634;52.138;9.912;2023-01-31T11:41:24;23.48;;;5.57;;
52740;SDS011;38634;52.138;9.912;2023-01-31T11:44:18;23.52;;;5.22;;
52740;SDS011;38634;52.138;9.912;2023-01-31T11:47:04;41.60;;;9.40;;
52740;SDS011;38634;52.138;9.912;2023-01-31T11:49:55;28.98;;;6.18;;
52740;SDS011;38634;52.138;9.912;2023-01-31T11:52:40;23.02;;;5.68;;
52740;SDS011;38634;52.138;9.912;2023-01-31T11:55:24;32.13;;;6.82;;
52740;SDS011;38634;52.138;9.912;2023-01-31T11:58:53;42.67;;;8.63;;
52740;SDS011;38634;52.138;9.912;2023-01-31T12:01:21;46.53;;;9.85;;
52740;SDS011;38634;52.138;9.912;2023-01-31T12:04:13;36.15;;;7.65;;
52740;SDS011;38634;52.138;9.912;2023-01-31T12:07:25;23.70;;;5.65;;
52740;SDS011;38634;52.138;9.912;2023-01-31T12:10:27;20.90;;;5.40;;
52740;SDS011;38634;52.138;9.912;2023-01-31T12:13:44;35.38;;;7.50;;
52740;SDS011;38634;52.138;9.912;2023-01-31T12:16:30;19.92;;;5.18;;
52740;SDS011;38634;52.138;9.912;2023-01-31T12:22:29;39.90;;;7.93;;
52740;SDS011;38634;52.138;9.912;2023-01-31T12:25:45;31.30;;;7.10;;
52740;SDS011;38634;52.138;9.912;2023-01-31T12:47:35;43.13;;;9.00;;
52740;SDS011;38634;52.138;9.912;2023-01-31T12:50:46;33.95;;;7.03;;
52740;SDS011;38634;52.138;9.912;2023-01-31T12:53:39;24.85;;;5.80;;
52740;SDS011;38634;52.138;9.912;2023-01-31T13:06:12;17.90;;;4.40;;
52740;SDS011;38634;52.138;9.912;2023-01-31T13:09:18;40.72;;;7.78;;
52740;SDS011;38634;52.138;9.912;2023-01-31T13:12:15;21.25;;;5.38;;
52740;SDS011;38634;52.138;9.912;2023-01-31T13:15:17;20.77;;;5.50;;
52740;SDS011;38634;52.138;9.912;2023-01-31T13:18:31;41.13;;;8.82;;
52740;SDS011;38634;52.138;9.912;2023-01-31T13:21:19;40.25;;;9.35;;
52740;SDS011;38634;52.138;9.912;2023-01-31T13:24:30;15.27;;;3.97;;
52740;SDS011;38634;52.138;9.912;2023-01-31T13:33:34;40.70;;;8.25;;
52740;SDS011;38634;52.138;9.912;2023-01-31T13:36:42;39.47;;;8.52;;
52740;SDS011;38634;52.138;9.912;2023-01-31T13:40:02;22.13;;;5.63;;
52740;SDS011;38634;52.138;9.912;2023-01-31T13:42:53;42.22;;;8.35;;
52740;SDS011;38634;52.138;9.912;2023-01-31T13:45:40;46.00;;;9.32;;
52740;SDS011;38634;52.138;9.912;2023-01-31T13:48:39;37.33;;;8.30;;
52740;SDS011;38634;52.138;9.912;2023-01-31T13:51:33;34.60;;;7.28;;
52740;SDS011;38634;52.138;9.912;2023-01-31T13:54:22;20.92;;;5.45;;
52740;SDS011;38634;52.138;9.912;2023-01-31T14:00:43;17.42;;;4.97;;
52740;SDS011;38634;52.138;9.912;2023-01-31T14:03:30;45.45;;;9.45;;
52740;SDS011;38634;52.138;9.912;2023-01-31T14:09:41;21.25;;;5.03;;
52740;SDS011;38634;52.138;9.912;2023-01-31T14:12:49;22.65;;;5.15;;
52740;SDS011;38634;52.138;9.912;2023-01-31T14:22:35;38.35;;;8.35;;
52740;SDS011;38634;52.138;9.912;2023-01-31T14:25:39;19.08;;;4.97;;
52740;SDS011;38634;52.138;9.912;2023-01-31T14:28:24;47.38;;;9.95;;
52740;SDS011;38634;52.138;9.912;2023-01-31T14:31:10;39.17;;;8.02;;
52740;SDS011;38634;52.138;9.912;2023-01-31T14:33:56;25.90;;;7.13;;
52740;SDS011;38634;52.138;9.912;2023-01-31T14:40:27;22.77;;;5.45;;
52740;SDS011;38634;52.138;9.912;2023-01-31T14:49:51;18.10;;;4.40;;
52740;SDS011;38634;52.138;9.912;2023-01-31T14:52:45;47.40;;;9.27;;
52740;SDS011;38634;52.138;9.912;2023-01-31T14:56:05;23.48;;;5.63;;
52740;SDS011;38634;52.138;9.912;2023-01-31T14:59:27;20.50;;;5.65;;
52740;SDS011;38634;52.138;9.912;2023-01-31T15:05:38;29.40;;;6.28;;
52740;SDS011;38634;52.138;9.912;2023-01-31T15:08:30;36.10;;;7.22;;
52740;SDS011;38634;52.138;9.912;2023-01-31T15:11:37;36.90;;;9.25;;
52740;SDS011;38634;52.138;9.912;2023-01-31T15:14:34;35.85;;;7.25;;
52740;SDS011;38634;52.138;9.912;2023-01-31T15:17:24;32.33;;;6.55;;
52740;SDS011;38634;52.138;9.912;2023-01-31T15:20:16;42.97;;;8.95;;
52740;SDS011;38634;52.138;9.912;2023-01-31T15:23:03;21.52;;;5.65;;
52740;SDS011;38634;52.138;9.912;2023-01-31T15:25:49;22.73;;;5.15;;
52740;SDS011;38634;52.138;9.912;2023-01-31T15:28:36;35.75;;;7.95;;
52740;SDS011;38634;52.138;9.912;2023-01-31T15:31:34;39.03;;;7.55;;
52740;SDS011;38634;52.138;9.912;2023-01-31T15:34:26;39.03;;;7.43;;
52740;SDS011;38634;52.138;9.912;2023-01-31T15:37:19;34.25;;;7.18;;
52740;SDS011;38634;52.138;9.912;2023-01-31T15:43:16;27.45;;;6.65;;
52740;SDS011;38634;52.138;9.912;2023-01-31T15:46:13;43.75;;;8.70;;
52740;SDS011;38634;52.138;9.912;2023-01-31T15:49:40;46.38;;;9.00;;
52740;SDS011;38634;52.138;9.912;2023-01-31T15:52:26;37.88;;;7.63;;
52740;SDS011;38634;52.138;9.912;2023-01-31T15:55:17;21.65;;;5.78;;
52740;SDS011;38634;52.138;9.912;2023-01-31T15:58:02;22.98;;;5.68;;
52740;SDS011;38634;52.138;9.912;2023-01-31T16:00:53;41.58;;;7.95;;
52740;SDS011;38634;52.138;9.912;2023-01-31T16:03:58;32.03;;;7.10;;
52740;SDS011;38634;52.138;9.912;2023-01-31T16:06:44;34.53;;;7.00;;
52740;SDS011;38634;52.138;9.912;2023-01-31T16:09:29;40.40;;;7.82;;
52740;SDS011;38634;52.138;9.912;2023-01-31T16:12:15;19.67;;;5.82;;
52740;SDS011;38634;52.138;9.912;2023-01-31T16:15:02;12.70;;;3.88;;
52740;SDS011;38634;52.138;9.912;2023-01-31T16:17:49;46.00;;;10.00;;
52740;SDS011;38634;52.138;9.912;2023-01-31T16:20:39;36.83;;;7.25;;
52740;SDS011;38634;52.138;9.912;2023-01-31T16:23:36;27.67;;;6.15;;
52740;SDS011;38634;52.138;9.912;2023-01-31T16:26:24;38.05;;;7.45;;
52740;SDS011;38634;52.138;9.912;2023-01-31T16:29:19;20.35;;;5.10;;
52740;SDS011;38634;52.138;9.912;2023-01-31T16:32:16;24.00;;;5.78;;
52740;SDS011;38634;52.138;9.912;2023-01-31T16:38:19;27.35;;;7.43;;
52740;SDS011;38634;52.138;9.912;2023-01-31T16:41:09;53.75;;;9.40;;
52740;SDS011;38634;52.138;9.912;2023-01-31T16:43:55;42.38;;;9.02;;
52740;SDS011;38634;52.138;9.912;2023-01-31T16:46:42;19.65;;;4.82;;
52740;SDS011;38634;52.138;9.912;2023-01-31T16:49:30;32.95;;;6.78;;
52740;SDS011;38634;52.138;9.912;2023-01-31T16:52:29;39.92;;;7.63;;
52740;SDS011;38634;52.138;9.912;2023-01-31T16:55:21;18.00;;;4.97;;
52740;SDS011;38634;52.138;9.912;2023-01-31T16:58:10;52.90;;;9.30;;
52740;SDS011;38634;52.138;9.912;2023-01-31T17:00:56;24.88;;;5.82;;
52740;SDS011;38634;52.138;9.912;2023-01-31T17:07:00;22.55;;;5.22;;
52740;SDS011;38634;52.138;9.912;2023-01-31T17:09:48;42.63;;;8.68;;
52740;SDS011;38634;52.138;9.912;2023-01-31T17:12:38;20.58;;;5.35;;
52740;SDS011;38634;52.138;9.912;2023-01-31T17:15:23;28.00;;;6.22;;
52740;SDS011;38634;52.138;9.912;2023-01-31T17:18:11;47.38;;;9.52;;
52740;SDS011;38634;52.138;9.912;2023-01-31T17:20:55;32.47;;;7.40;;
52740;SDS011;38634;52.138;9.912;2023-01-31T17:23:40;19.02;;;6.28;;
52740;SDS011;38634;52.138;9.912;2023-01-31T17:26:25;19.75;;;4.97;;
52740;SDS011;38634;52.138;9.912;2023-01-31T17:29:10;35.58;;;7.45;;
52740;SDS011;38634;52.138;9.912;2023-01-31T17:31:54;37.53;;;7.72;;
52740;SDS011;38634;52.138;9.912;2023-01-31T17:34:39;31.63;;;7.28;;
52740;SDS011;38634;52.138;9.912;2023-01-31T17:37:23;27.25;;;7.05;;
52740;SDS011;38634;52.138;9.912;2023-01-31T17:40:08;17.58;;;4.78;;
52740;SDS011;38634;52.138;9.912;2023-01-31T17:42:56;25.50;;;5.97;;
52740;SDS011;38634;52.138;9.912;2023-01-31T17:45:43;44.15;;;8.35;;
52740;SDS011;38634;52.138;9.912;2023-01-31T17:48:27;35.65;;;7.80;;
52740;SDS011;38634;52.138;9.912;2023-01-31T17:51:12;23.45;;;7.45;;
52740;SDS011;38634;52.138;9.912;2023-01-31T17:53:57;22.35;;;6.15;;
52740;SDS011;38634;52.138;9.912;2023-01-31T17:56:42;29.50;;;6.00;;
52740;SDS011;38634;52.138;9.912;2023-01-31T17:59:26;52.50;;;9.20;;
52740;SDS011;38634;52.138;9.912;2023-01-31T18:02:11;35.83;;;6.72;;
52740;SDS011;38634;52.138;9.912;2023-01-31T18:04:56;26.65;;;5.65;;
52740;SDS011;38634;52.138;9.912;2023-01-31T18:07:41;24.25;;;5.13;;
52740;SDS011;38634;52.138;9.912;2023-01-31T18:10:25;23.90;;;5.43;;
52740;SDS011;38634;52.138;9.912;2023-01-31T18:13:10;40.75;;;8.20;;
52740;SDS011;38634;52.138;9.912;2023-01-31T18:16:00;38.67;;;7.05;;
52740;SDS011;38634;52.138;9.912;2023-01-31T18:18:57;17.23;;;3.72;;
52740;SDS011;38634;52.138;9.912;2023-01-31T18:21:42;16.60;;;3.45;;
52740;SDS011;38634;52.138;9.912;2023-01-31T18:24:26;15.93;;;3.65;;
52740;SDS011;38634;52.138;9.912;2023-01-31T18:27:11;19.30;;;4.65;;
52740;SDS011;38634;52.138;9.912;2023-01-31T18:29:55;15.65;;;3.35;;
52740;SDS011;38634;52.138;9.912;2023-01-31T18:32:40;12.00;;;3.10;;
52740;SDS011;38634;52.138;9.912;2023-01-31T18:35:25;13.35;;;3.08;;
52740;SDS011;38634;52.138;9.912;2023-01-31T18:38:09;16.02;;;3.50;;
52740;SDS011;38634;52.138;9.912;2023-01-31T18:40:55;15.57;;;3.38;;
52740;SDS011;38634;52.138;9.912;2023-01-31T18:43:42;17.30;;;3.80;;
52740;SDS011;38634;52.138;9.912;2023-01-31T18:46:27;11.70;;;2.88;;
52740;SDS011;38634;52.138;9.912;2023-01-31T18:49:12;11.50;;;2.80;;
52740;SDS011;38634;52.138;9.912;2023-01-31T18:51:57;12.27;;;3.05;;
52740;SDS011;38634;52.138;9.912;2023-01-31T18:54:41;14.13;;;3.40;;
52740;SDS011;38634;52.138;9.912;2023-01-31T18:57:26;13.85;;;3.33;;
52740;SDS011;38634;52.138;9.912;2023-01-31T19:00:10;13.50;;;3.63;;
52740;SDS011;38634;52.138;9.912;2023-01-31T19:02:55;7.78;;;3.15;;
52740;SDS011;38634;52.138;9.912;2023-01-31T19:05:41;13.23;;;3.30;;
52740;SDS011;38634;52.138;9.912;2023-01-31T19:08:26;12.43;;;4.78;;
52740;SDS011;38634;52.138;9.912;2023-01-31T19:11:11;11.27;;;3.42;;
52740;SDS011;38634;52.138;9.912;2023-01-31T19:13:57;10.40;;;4.90;;
52740;SDS011;38634;52.138;9.912;2023-01-31T19:16:41;13.50;;;3.17;;
52740;SDS011;38634;52.138;9.912;2023-01-31T19:19:27;7.18;;;2.38;;
52740;SDS011;38634;52.138;9.912;2023-01-31T19:22:11;16.30;;;3.65;;
52740;SDS011;38634;52.138;9.912;2023-01-31T19:24:56;13.23;;;3.13;;
52740;SDS011;38634;52.138;9.912;2023-01-31T19:27:41;19.20;;;4.53;;
52740;SDS011;38634;52.138;9.912;2023-01-31T19:30:26;14.80;;;3.45;;
52740;SDS011;38634;52.138;9.912;2023-01-31T19:33:11;12.25;;;3.33;;
52740;SDS011;38634;52.138;9.912;2023-01-31T19:35:55;11.07;;;2.95;;
52740;SDS011;38634;52.138;9.912;2023-01-31T19:38:40;14.95;;;3.42;;
52740;SDS011;38634;52.138;9.912;2023-01-31T19:41:25;10.25;;;2.83;;
52740;SDS011;38634;52.138;9.912;2023-01-31T19:44:11;13.45;;;3.38;;
52740;SDS011;38634;52.138;9.912;2023-01-31T19:46:56;13.75;;;4.78;;
52740;SDS011;38634;52.138;9.912;2023-01-31T19:49:41;13.93;;;4.07;;
52740;SDS011;38634;52.138;9.912;2023-01-31T19:52:25;9.23;;;2.88;;
52740;SDS011;38634;52.138;9.912;2023-01-31T19:55:13;9.60;;;3.55;;
52740;SDS011;38634;52.138;9.912;2023-01-31T19:57:57;10.57;;;2.90;;
52740;SDS011;38634;52.138;9.912;2023-01-31T20:00:42;8.27;;;2.85;;
52740;SDS011;38634;52.138;9.912;2023-01-31T20:03:27;9.82;;;2.97;;
52740;SDS011;38634;52.138;9.912;2023-01-31T20:06:16;11.13;;;3.15;;
52740;SDS011;38634;52.138;9.912;2023-01-31T20:09:03;10.27;;;2.65;;
52740;SDS011;38634;52.138;9.912;2023-01-31T20:11:48;13.48;;;4.15;;
52740;SDS011;38634;52.138;9.912;2023-01-31T20:14:33;15.45;;;4.82;;
52740;SDS011;38634;52.138;9.912;2023-01-31T20:17:18;13.68;;;3.30;;
52740;SDS011;38634;52.138;9.912;2023-01-31T20:20:03;14.77;;;4.50;;
52740;SDS011;38634;52.138;9.912;2023-01-31T20:22:49;13.82;;;3.22;;
52740;SDS011;38634;52.138;9.912;2023-01-31T20:25:33;13.63;;;3.10;;
52740;SDS011;38634;52.138;9.912;2023-01-31T20:28:18;14.07;;;3.92;;
52740;SDS011;38634;52.138;9.912;2023-01-31T20:31:04;13.88;;;3.38;;
52740;SDS011;38634;52.138;9.912;2023-01-31T20:33:53;15.80;;;5.40;;
52740;SDS011;38634;52.138;9.912;2023-01-31T20:36:38;6.78;;;3.70;;
52740;SDS011;38634;52.138;9.912;2023-01-31T20:39:22;14.55;;;3.45;;
52740;SDS011;38634;52.138;9.912;2023-01-31T20:42:07;14.20;;;3.42;;
52740;SDS011;38634;52.138;9.912;2023-01-31T20:44:53;13.38;;;3.58;;
52740;SDS011;38634;52.138;9.912;2023-01-31T20:47:37;14.40;;;3.65;;
52740;SDS011;38634;52.138;9.912;2023-01-31T20:50:22;11.75;;;3.00;;
52740;SDS011;38634;52.138;9.912;2023-01-31T20:53:17;14.10;;;3.33;;
52740;SDS011;38634;52.138;9.912;2023-01-31T20:56:04;14.57;;;3.55;;
52740;SDS011;38634;52.138;9.912;2023-01-31T20:58:50;17.05;;;3.90;;
52740;SDS011;38634;52.138;9.912;2023-01-31T21:01:35;10.88;;;3.20;;
52740;SDS011;38634;52.138;9.912;2023-01-31T21:04:19;14.85;;;3.65;;
52740;SDS011;38634;52.138;9.912;2023-01-31T21:07:04;12.07;;;3.10;;
52740;SDS011;38634;52.138;9.912;2023-01-31T21:09:48;12.60;;;3.20;;
52740;SDS011;38634;52.138;9.912;2023-01-31T21:12:33;11.95;;;3.05;;
52740;SDS011;38634;52.138;9.912;2023-01-31T21:15:18;13.77;;;3.92;;
52740;SDS011;38634;52.138;9.912;2023-01-31T21:18:03;11.18;;;3.55;;
52740;SDS011;38634;52.138;9.912;2023-01-31T21:20:47;6.85;;;2.90;;
52740;SDS011;38634;52.138;9.912;2023-01-31T21:23:32;8.93;;;2.83;;
52740;SDS011;38634;52.138;9.912;2023-01-31T21:26:18;9.80;;;3.30;;
52740;SDS011;38634;52.138;9.912;2023-01-31T21:29:04;10.45;;;3.95;;
52740;SDS011;38634;52.138;9.912;2023-01-31T21:31:52;13.15;;;5.28;;
52740;SDS011;38634;52.138;9.912;2023-01-31T21:34:36;8.40;;;3.20;;
52740;SDS011;38634;52.138;9.912;2023-01-31T21:37:26;10.60;;;3.17;;
52740;SDS011;38634;52.138;9.912;2023-01-31T21:40:11;11.13;;;3.58;;
52740;SDS011;38634;52.138;9.912;2023-01-31T21:42:56;8.18;;;2.72;;
52740;SDS011;38634;52.138;9.912;2023-01-31T21:45:41;8.75;;;4.25;;
52740;SDS011;38634;52.138;9.912;2023-01-31T21:48:25;12.20;;;4.28;;
52740;SDS011;38634;52.138;9.912;2023-01-31T21:51:14;6.93;;;2.63;;
52740;SDS011;38634;52.138;9.912;2023-01-31T21:54:00;13.65;;;4.20;;
52740;SDS011;38634;52.138;9.912;2023-01-31T21:56:44;12.48;;;3.72;;
52740;SDS011;38634;52.138;9.912;2023-01-31T21:59:29;10.48;;;4.13;;
52740;SDS011;38634;52.138;9.912;2023-01-31T22:02:16;10.20;;;5.30;;
52740;SDS011;38634;52.138;9.912;2023-01-31T22:05:01;9.73;;;3.80;;
52740;SDS011;38634;52.138;9.912;2023-01-31T22:07:46;9.27;;;3.33;;
52740;SDS011;38634;52.138;9.912;2023-01-31T22:10:34;14.15;;;5.90;;
52740;SDS011;38634;52.138;9.912;2023-01-31T22:13:18;9.55;;;3.28;;
52740;SDS011;38634;52.138;9.912;2023-01-31T22:16:04;16.08;;;4.38;;
52740;SDS011;38634;52.138;9.912;2023-01-31T22:18:51;13.80;;;3.75;;
52740;SDS011;38634;52.138;9.912;2023-01-31T22:21:36;12.60;;;3.42;;
52740;SDS011;38634;52.138;9.912;2023-01-31T22:24:20;13.18;;;3.25;;
52740;SDS011;38634;52.138;9.912;2023-01-31T22:27:05;11.32;;;3.33;;
52740;SDS011;38634;52.138;9.912;2023-01-31T22:29:52;11.48;;;3.25;;
52740;SDS011;38634;52.138;9.912;2023-01-31T22:32:40;12.07;;;3.28;;
52740;SDS011;38634;52.138;9.912;2023-01-31T22:35:24;8.82;;;2.95;;
52740;SDS011;38634;52.138;9.912;2023-01-31T22:38:09;12.77;;;3.30;;
52740;SDS011;38634;52.138;9.912;2023-01-31T22:40:58;12.23;;;3.20;;
52740;SDS011;38634;52.138;9.912;2023-01-31T22:43:45;10.68;;;3.33;;
52740;SDS011;38634;52.138;9.912;2023-01-31T22:46:32;15.02;;;3.75;;
52740;SDS011;38634;52.138;9.912;2023-01-31T22:49:17;9.50;;;2.72;;
52740;SDS011;38634;52.138;9.912;2023-01-31T22:52:02;13.07;;;3.53;;
52740;SDS011;38634;52.138;9.912;2023-01-31T22:54:46;12.73;;;3.50;;
52740;SDS011;38634;52.138;9.912;2023-01-31T22:57:31;12.55;;;3.08;;
52740;SDS011;38634;52.138;9.912;2023-01-31T23:00:15;8.27;;;2.72;;
52740;SDS011;38634;52.138;9.912;2023-01-31T23:03:01;10.38;;;2.95;;
52740;SDS011;38634;52.138;9.912;2023-01-31T23:05:47;10.50;;;3.08;;
52740;SDS011;38634;52.138;9.912;2023-01-31T23:08:31;14.25;;;4.82;;
52740;SDS011;38634;52.138;9.912;2023-01-31T23:11:16;10.05;;;3.63;;
52740;SDS011;38634;52.138;9.912;2023-01-31T23:14:03;9.52;;;4.25;;
52740;SDS011;38634;52.138;9.912;2023-01-31T23:16:48;10.60;;;4.45;;
52740;SDS011;38634;52.138;9.912;2023-01-31T23:19:52;17.55;;;5.22;;
52740;SDS011;38634;52.138;9.912;2023-01-31T23:22:36;8.27;;;2.85;;
52740;SDS011;38634;52.138;9.912;2023-01-31T23:25:21;11.15;;;3.15;;
52740;SDS011;38634;52.138;9.912;2023-01-31T23:28:08;11.90;;;3.55;;
52740;SDS011;38634;52.138;9.912;2023-01-31T23:30:53;13.43;;;3.38;;
52740;SDS011;38634;52.138;9.912;2023-01-31T23:33:37;14.32;;;3.78;;
52740;SDS011;38634;52.138;9.912;2023-01-31T23:36:22;16.08;;;3.78;;
52740;SDS011;38634;52.138;9.912;2023-01-31T23:39:07;17.95;;;4.07;;
52740;SDS011;38634;52.138;9.912;2023-01-31T23:41:52;16.50;;;4.00;;
52740;SDS011;38634;52.138;9.912;2023-01-31T23:44:37;16.05;;;4.28;;
52740;SDS011;38634;52.138;9.912;2023-01-31T23:47:21;15.15;;;3.72;;
52740;SDS011;38634;52.138;9.912;2023-01-31T23:50:06;11.30;;;2.97;;
52740;SDS011;38634;52.138;9.912;2023-01-31T23:52:52;13.32;;;3.53;;
52740;SDS011;38634;52.138;9.912;2023-01-31T23:55:36;12.65;;;3.20;;
52740;SDS011;38634;52.138;9.912;2023-01-31T23:58:21;13.10;;;3.10;;
